sensor_id;sensor_type;location;lat;lon;timestamp;temperature;humidity
54540;SHT30;40438;52.992;18.604;2023-08-08T00:00:55;15.20;64.45
54540;SHT30;40438;52.992;18.604;2023-08-08T00:03:21;15.18;64.57
54540;SHT30;40438;52.992;18.604;2023-08-08T00:05:47;15.22;64.63
54540;SHT30;40438;52.992;18.604;2023-08-08T00:08:13;15.10;64.74
54540;SHT30;40438;52.992;18.604;2023-08-08T00:10:40;15.15;64.70
54540;SHT30;40438;52.992;18.604;2023-08-08T00:13:06;15.11;64.90
54540;SHT30;40438;52.992;18.604;2023-08-08T00:15:31;15.07;64.96
54540;SHT30;40438;52.992;18.604;2023-08-08T00:17:57;15.06;64.93
54540;SHT30;40438;52.992;18.604;2023-08-08T00:20:23;15.12;64.58
54540;SHT30;40438;52.992;18.604;2023-08-08T00:22:49;15.01;65.05
54540;SHT30;40438;52.992;18.604;2023-08-08T00:25:14;14.97;65.20
54540;SHT30;40438;52.992;18.604;2023-08-08T00:27:42;14.93;65.01
54540;SHT30;40438;52.992;18.604;2023-08-08T00:30:09;14.91;65.22
54540;SHT30;40438;52.992;18.604;2023-08-08T00:32:35;14.93;65.08
54540;SHT30;40438;52.992;18.604;2023-08-08T00:35:01;14.89;65.03
54540;SHT30;40438;52.992;18.604;2023-08-08T00:37:27;14.81;65.38
54540;SHT30;40438;52.992;18.604;2023-08-08T00:39:52;14.80;65.17
54540;SHT30;40438;52.992;18.604;2023-08-08T00:42:18;14.89;64.90
54540;SHT30;40438;52.992;18.604;2023-08-08T00:44:45;14.79;65.21
54540;SHT30;40438;52.992;18.604;2023-08-08T00:47:11;14.77;65.19
54540;SHT30;40438;52.992;18.604;2023-08-08T00:49:37;14.73;65.39
54540;SHT30;40438;52.992;18.604;2023-08-08T00:52:04;14.68;65.42
54540;SHT30;40438;52.992;18.604;2023-08-08T00:54:31;14.66;65.20
54540;SHT30;40438;52.992;18.604;2023-08-08T00:56:57;14.63;65.61
54540;SHT30;40438;52.992;18.604;2023-08-08T00:59:23;14.59;65.68
54540;SHT30;40438;52.992;18.604;2023-08-08T01:01:50;14.62;65.65
54540;SHT30;40438;52.992;18.604;2023-08-08T01:04:17;14.59;65.55
54540;SHT30;40438;52.992;18.604;2023-08-08T01:06:48;14.51;65.87
54540;SHT30;40438;52.992;18.604;2023-08-08T01:09:21;14.49;66.03
54540;SHT30;40438;52.992;18.604;2023-08-08T01:11:49;14.39;66.19
54540;SHT30;40438;52.992;18.604;2023-08-08T01:14:17;14.43;66.20
54540;SHT30;40438;52.992;18.604;2023-08-08T01:16:43;14.29;66.68
54540;SHT30;40438;52.992;18.604;2023-08-08T01:19:13;14.32;66.53
54540;SHT30;40438;52.992;18.604;2023-08-08T01:21:42;14.29;66.77
54540;SHT30;40438;52.992;18.604;2023-08-08T01:24:18;14.31;66.81
54540;SHT30;40438;52.992;18.604;2023-08-08T01:26:44;14.28;66.89
54540;SHT30;40438;52.992;18.604;2023-08-08T01:29:10;14.31;66.89
54540;SHT30;40438;52.992;18.604;2023-08-08T01:31:36;14.26;67.23
54540;SHT30;40438;52.992;18.604;2023-08-08T01:34:02;14.26;67.24
54540;SHT30;40438;52.992;18.604;2023-08-08T01:36:32;14.21;67.37
54540;SHT30;40438;52.992;18.604;2023-08-08T01:39:01;14.24;67.61
54540;SHT30;40438;52.992;18.604;2023-08-08T01:41:29;14.14;67.83
54540;SHT30;40438;52.992;18.604;2023-08-08T01:43:56;14.10;68.19
54540;SHT30;40438;52.992;18.604;2023-08-08T01:46:22;14.05;68.37
54540;SHT30;40438;52.992;18.604;2023-08-08T01:48:48;14.10;68.44
54540;SHT30;40438;52.992;18.604;2023-08-08T01:51:14;14.14;68.42
54540;SHT30;40438;52.992;18.604;2023-08-08T01:53:39;14.17;68.50
54540;SHT30;40438;52.992;18.604;2023-08-08T01:56:05;14.04;68.79
54540;SHT30;40438;52.992;18.604;2023-08-08T01:58:32;14.02;69.01
54540;SHT30;40438;52.992;18.604;2023-08-08T02:00:58;14.21;68.53
54540;SHT30;40438;52.992;18.604;2023-08-08T02:03:26;14.21;68.74
54540;SHT30;40438;52.992;18.604;2023-08-08T02:05:52;14.14;68.91
54540;SHT30;40438;52.992;18.604;2023-08-08T02:08:17;14.08;69.27
54540;SHT30;40438;52.992;18.604;2023-08-08T02:10:43;14.21;68.95
54540;SHT30;40438;52.992;18.604;2023-08-08T02:13:09;14.12;69.31
54540;SHT30;40438;52.992;18.604;2023-08-08T02:15:36;14.19;69.11
54540;SHT30;40438;52.992;18.604;2023-08-08T02:18:03;14.21;69.18
54540;SHT30;40438;52.992;18.604;2023-08-08T02:20:29;14.18;69.29
54540;SHT30;40438;52.992;18.604;2023-08-08T02:22:54;14.18;69.30
54540;SHT30;40438;52.992;18.604;2023-08-08T02:25:20;14.18;69.49
54540;SHT30;40438;52.992;18.604;2023-08-08T02:27:46;14.15;69.56
54540;SHT30;40438;52.992;18.604;2023-08-08T02:30:13;14.10;69.86
54540;SHT30;40438;52.992;18.604;2023-08-08T02:32:40;14.17;69.72
54540;SHT30;40438;52.992;18.604;2023-08-08T02:35:07;14.21;69.70
54540;SHT30;40438;52.992;18.604;2023-08-08T02:37:33;14.08;70.04
54540;SHT30;40438;52.992;18.604;2023-08-08T02:39:58;14.14;69.92
54540;SHT30;40438;52.992;18.604;2023-08-08T02:42:24;14.12;70.10
54540;SHT30;40438;52.992;18.604;2023-08-08T02:44:50;14.12;70.12
54540;SHT30;40438;52.992;18.604;2023-08-08T02:47:16;14.26;69.77
54540;SHT30;40438;52.992;18.604;2023-08-08T02:49:43;14.26;69.67
54540;SHT30;40438;52.992;18.604;2023-08-08T02:52:09;14.21;69.95
54540;SHT30;40438;52.992;18.604;2023-08-08T02:54:36;14.22;69.88
54540;SHT30;40438;52.992;18.604;2023-08-08T02:57:02;14.19;70.12
54540;SHT30;40438;52.992;18.604;2023-08-08T02:59:28;14.14;70.30
54540;SHT30;40438;52.992;18.604;2023-08-08T03:01:54;14.28;69.77
54540;SHT30;40438;52.992;18.604;2023-08-08T03:04:20;14.24;69.94
54540;SHT30;40438;52.992;18.604;2023-08-08T03:06:48;14.28;69.96
54540;SHT30;40438;52.992;18.604;2023-08-08T03:09:14;14.19;70.03
54540;SHT30;40438;52.992;18.604;2023-08-08T03:11:41;14.05;70.53
54540;SHT30;40438;52.992;18.604;2023-08-08T03:14:09;14.14;70.49
54540;SHT30;40438;52.992;18.604;2023-08-08T03:16:36;14.05;70.87
54540;SHT30;40438;52.992;18.604;2023-08-08T03:19:03;14.10;70.80
54540;SHT30;40438;52.992;18.604;2023-08-08T03:21:29;14.11;70.89
54540;SHT30;40438;52.992;18.604;2023-08-08T03:23:56;14.12;70.83
54540;SHT30;40438;52.992;18.604;2023-08-08T03:26:22;14.05;71.17
54540;SHT30;40438;52.992;18.604;2023-08-08T03:28:48;14.19;70.57
54540;SHT30;40438;52.992;18.604;2023-08-08T03:31:14;14.14;70.69
54540;SHT30;40438;52.992;18.604;2023-08-08T03:33:41;14.10;70.89
54540;SHT30;40438;52.992;18.604;2023-08-08T03:36:11;14.05;71.22
54540;SHT30;40438;52.992;18.604;2023-08-08T03:38:37;14.10;70.97
54540;SHT30;40438;52.992;18.604;2023-08-08T03:41:05;14.15;70.73
54540;SHT30;40438;52.992;18.604;2023-08-08T03:43:31;14.21;70.66
54540;SHT30;40438;52.992;18.604;2023-08-08T03:45:56;14.15;70.80
54540;SHT30;40438;52.992;18.604;2023-08-08T03:48:23;14.18;70.60
54540;SHT30;40438;52.992;18.604;2023-08-08T03:50:50;14.14;70.96
54540;SHT30;40438;52.992;18.604;2023-08-08T03:53:15;14.31;70.66
54540;SHT30;40438;52.992;18.604;2023-08-08T03:55:41;14.33;70.61
54540;SHT30;40438;52.992;18.604;2023-08-08T03:58:08;14.35;70.67
54540;SHT30;40438;52.992;18.604;2023-08-08T04:00:34;14.28;71.10
54540;SHT30;40438;52.992;18.604;2023-08-08T04:03:00;14.36;70.86
54540;SHT30;40438;52.992;18.604;2023-08-08T04:05:26;14.33;71.24
54540;SHT30;40438;52.992;18.604;2023-08-08T04:07:52;14.28;71.50
54540;SHT30;40438;52.992;18.604;2023-08-08T04:10:17;14.35;71.29
54540;SHT30;40438;52.992;18.604;2023-08-08T04:12:43;14.36;71.36
54540;SHT30;40438;52.992;18.604;2023-08-08T04:15:12;14.38;71.36
54540;SHT30;40438;52.992;18.604;2023-08-08T04:17:38;14.51;70.96
54540;SHT30;40438;52.992;18.604;2023-08-08T04:20:05;14.49;71.00
54540;SHT30;40438;52.992;18.604;2023-08-08T04:22:31;14.46;71.43
54540;SHT30;40438;52.992;18.604;2023-08-08T04:24:59;14.46;71.24
54540;SHT30;40438;52.992;18.604;2023-08-08T04:27:24;14.42;71.46
54540;SHT30;40438;52.992;18.604;2023-08-08T04:29:50;14.43;71.48
54540;SHT30;40438;52.992;18.604;2023-08-08T04:32:17;14.41;71.63
54540;SHT30;40438;52.992;18.604;2023-08-08T04:34:43;14.46;71.69
54540;SHT30;40438;52.992;18.604;2023-08-08T04:37:09;14.63;71.05
54540;SHT30;40438;52.992;18.604;2023-08-08T04:39:34;14.52;71.35
54540;SHT30;40438;52.992;18.604;2023-08-08T04:42:00;14.53;71.34
54540;SHT30;40438;52.992;18.604;2023-08-08T04:44:26;14.56;71.36
54540;SHT30;40438;52.992;18.604;2023-08-08T04:46:52;14.56;71.33
54540;SHT30;40438;52.992;18.604;2023-08-08T04:49:19;14.53;71.43
54540;SHT30;40438;52.992;18.604;2023-08-08T04:51:45;14.62;71.05
54540;SHT30;40438;52.992;18.604;2023-08-08T04:54:10;14.58;71.27
54540;SHT30;40438;52.992;18.604;2023-08-08T04:56:36;14.62;71.21
54540;SHT30;40438;52.992;18.604;2023-08-08T04:59:02;14.56;71.27
54540;SHT30;40438;52.992;18.604;2023-08-08T05:01:28;14.63;71.34
54540;SHT30;40438;52.992;18.604;2023-08-08T05:03:53;14.60;71.41
54540;SHT30;40438;52.992;18.604;2023-08-08T05:06:21;14.56;71.47
54540;SHT30;40438;52.992;18.604;2023-08-08T05:08:46;14.52;71.58
54540;SHT30;40438;52.992;18.604;2023-08-08T05:11:12;14.55;71.27
54540;SHT30;40438;52.992;18.604;2023-08-08T05:13:38;14.59;71.38
54540;SHT30;40438;52.992;18.604;2023-08-08T05:16:04;14.59;71.71
54540;SHT30;40438;52.992;18.604;2023-08-08T05:18:30;14.60;71.75
54540;SHT30;40438;52.992;18.604;2023-08-08T05:20:55;14.65;71.61
54540;SHT30;40438;52.992;18.604;2023-08-08T05:23:22;14.73;71.62
54540;SHT30;40438;52.992;18.604;2023-08-08T05:25:48;14.72;71.51
54540;SHT30;40438;52.992;18.604;2023-08-08T05:28:14;14.69;71.43
54540;SHT30;40438;52.992;18.604;2023-08-08T05:30:40;14.68;71.68
54540;SHT30;40438;52.992;18.604;2023-08-08T05:33:05;14.72;71.49
54540;SHT30;40438;52.992;18.604;2023-08-08T05:35:31;14.69;71.82
54540;SHT30;40438;52.992;18.604;2023-08-08T05:37:57;14.66;71.40
54540;SHT30;40438;52.992;18.604;2023-08-08T05:40:24;14.80;70.98
54540;SHT30;40438;52.992;18.604;2023-08-08T05:42:50;14.79;71.29
54540;SHT30;40438;52.992;18.604;2023-08-08T05:45:16;14.79;71.56
54540;SHT30;40438;52.992;18.604;2023-08-08T05:47:41;14.89;71.06
54540;SHT30;40438;52.992;18.604;2023-08-08T05:50:08;14.80;70.84
54540;SHT30;40438;52.992;18.604;2023-08-08T05:52:34;14.76;70.85
54540;SHT30;40438;52.992;18.604;2023-08-08T05:55:00;14.80;70.81
54540;SHT30;40438;52.992;18.604;2023-08-08T05:57:27;14.75;71.16
54540;SHT30;40438;52.992;18.604;2023-08-08T05:59:53;14.83;71.15
54540;SHT30;40438;52.992;18.604;2023-08-08T06:02:20;14.90;70.75
54540;SHT30;40438;52.992;18.604;2023-08-08T06:04:46;15.00;70.62
54540;SHT30;40438;52.992;18.604;2023-08-08T06:07:12;15.12;69.79
54540;SHT30;40438;52.992;18.604;2023-08-08T06:09:38;15.22;70.10
54540;SHT30;40438;52.992;18.604;2023-08-08T06:12:04;15.35;69.20
54540;SHT30;40438;52.992;18.604;2023-08-08T06:14:31;15.39;69.60
54540;SHT30;40438;52.992;18.604;2023-08-08T06:16:57;15.49;68.67
54540;SHT30;40438;52.992;18.604;2023-08-08T06:19:23;15.38;68.48
54540;SHT30;40438;52.992;18.604;2023-08-08T06:21:49;15.34;69.16
54540;SHT30;40438;52.992;18.604;2023-08-08T06:24:14;15.38;69.00
54540;SHT30;40438;52.992;18.604;2023-08-08T06:26:40;15.31;68.94
54540;SHT30;40438;52.992;18.604;2023-08-08T06:29:06;15.27;69.22
54540;SHT30;40438;52.992;18.604;2023-08-08T06:31:33;15.28;68.50
54540;SHT30;40438;52.992;18.604;2023-08-08T06:33:59;15.38;68.26
54540;SHT30;40438;52.992;18.604;2023-08-08T06:36:25;15.27;68.63
54540;SHT30;40438;52.992;18.604;2023-08-08T06:38:50;15.35;68.02
54540;SHT30;40438;52.992;18.604;2023-08-08T06:41:16;15.41;67.28
54540;SHT30;40438;52.992;18.604;2023-08-08T06:43:42;15.45;67.60
54540;SHT30;40438;52.992;18.604;2023-08-08T06:46:08;15.54;66.82
54540;SHT30;40438;52.992;18.604;2023-08-08T06:48:35;15.61;66.65
54540;SHT30;40438;52.992;18.604;2023-08-08T06:51:01;15.57;66.99
54540;SHT30;40438;52.992;18.604;2023-08-08T06:53:26;15.68;66.47
54540;SHT30;40438;52.992;18.604;2023-08-08T06:55:52;15.55;66.67
54540;SHT30;40438;52.992;18.604;2023-08-08T06:58:18;15.58;66.41
54540;SHT30;40438;52.992;18.604;2023-08-08T07:00:44;15.62;65.95
54540;SHT30;40438;52.992;18.604;2023-08-08T07:03:10;15.68;66.37
54540;SHT30;40438;52.992;18.604;2023-08-08T07:05:37;15.68;66.80
54540;SHT30;40438;52.992;18.604;2023-08-08T07:08:03;15.75;66.45
54540;SHT30;40438;52.992;18.604;2023-08-08T07:10:29;15.87;65.77
54540;SHT30;40438;52.992;18.604;2023-08-08T07:12:54;15.99;65.04
54540;SHT30;40438;52.992;18.604;2023-08-08T07:15:20;15.96;64.48
54540;SHT30;40438;52.992;18.604;2023-08-08T07:17:46;16.06;65.12
54540;SHT30;40438;52.992;18.604;2023-08-08T07:20:12;16.18;64.49
54540;SHT30;40438;52.992;18.604;2023-08-08T07:22:39;16.21;63.55
54540;SHT30;40438;52.992;18.604;2023-08-08T07:25:06;16.12;64.40
54540;SHT30;40438;52.992;18.604;2023-08-08T07:27:32;16.05;64.61
54540;SHT30;40438;52.992;18.604;2023-08-08T07:29:57;16.05;64.98
54540;SHT30;40438;52.992;18.604;2023-08-08T07:32:23;16.07;65.16
54540;SHT30;40438;52.992;18.604;2023-08-08T07:34:49;16.20;64.46
54540;SHT30;40438;52.992;18.604;2023-08-08T07:37:15;16.33;64.01
54540;SHT30;40438;52.992;18.604;2023-08-08T07:39:42;16.27;63.97
54540;SHT30;40438;52.992;18.604;2023-08-08T07:42:07;16.20;63.45
54540;SHT30;40438;52.992;18.604;2023-08-08T07:44:33;16.23;63.22
54540;SHT30;40438;52.992;18.604;2023-08-08T07:46:59;16.27;63.20
54540;SHT30;40438;52.992;18.604;2023-08-08T07:49:25;16.45;62.51
54540;SHT30;40438;52.992;18.604;2023-08-08T07:51:51;16.55;62.39
54540;SHT30;40438;52.992;18.604;2023-08-08T07:54:16;16.59;61.67
54540;SHT30;40438;52.992;18.604;2023-08-08T07:56:44;16.61;60.44
54540;SHT30;40438;52.992;18.604;2023-08-08T07:59:09;16.37;61.49
54540;SHT30;40438;52.992;18.604;2023-08-08T08:01:35;16.47;61.00
54540;SHT30;40438;52.992;18.604;2023-08-08T08:04:01;16.57;60.91
54540;SHT30;40438;52.992;18.604;2023-08-08T08:06:27;16.78;60.56
54540;SHT30;40438;52.992;18.604;2023-08-08T08:08:52;16.67;60.89
54540;SHT30;40438;52.992;18.604;2023-08-08T08:11:18;16.78;60.00
54540;SHT30;40438;52.992;18.604;2023-08-08T08:13:45;16.85;60.32
54540;SHT30;40438;52.992;18.604;2023-08-08T08:16:11;16.89;59.54
54540;SHT30;40438;52.992;18.604;2023-08-08T08:18:37;16.95;59.20
54540;SHT30;40438;52.992;18.604;2023-08-08T08:21:03;16.95;59.66
54540;SHT30;40438;52.992;18.604;2023-08-08T08:23:29;17.07;58.65
54540;SHT30;40438;52.992;18.604;2023-08-08T08:25:56;17.07;59.19
54540;SHT30;40438;52.992;18.604;2023-08-08T08:28:22;17.03;59.13
54540;SHT30;40438;52.992;18.604;2023-08-08T08:30:49;17.05;58.95
54540;SHT30;40438;52.992;18.604;2023-08-08T08:33:15;17.10;58.61
54540;SHT30;40438;52.992;18.604;2023-08-08T08:35:41;17.24;58.54
54540;SHT30;40438;52.992;18.604;2023-08-08T08:38:06;17.36;58.76
54540;SHT30;40438;52.992;18.604;2023-08-08T08:40:35;17.36;57.96
54540;SHT30;40438;52.992;18.604;2023-08-08T08:43:02;17.34;57.86
54540;SHT30;40438;52.992;18.604;2023-08-08T08:45:29;17.34;57.84
54540;SHT30;40438;52.992;18.604;2023-08-08T08:47:57;17.22;58.27
54540;SHT30;40438;52.992;18.604;2023-08-08T08:50:23;17.10;58.89
54540;SHT30;40438;52.992;18.604;2023-08-08T08:52:52;17.20;59.15
54540;SHT30;40438;52.992;18.604;2023-08-08T08:55:18;17.24;58.37
54540;SHT30;40438;52.992;18.604;2023-08-08T08:57:44;17.41;58.43
54540;SHT30;40438;52.992;18.604;2023-08-08T09:00:11;17.55;57.62
54540;SHT30;40438;52.992;18.604;2023-08-08T09:02:37;17.46;57.59
54540;SHT30;40438;52.992;18.604;2023-08-08T09:05:04;17.41;58.15
54540;SHT30;40438;52.992;18.604;2023-08-08T09:07:31;17.26;57.16
54540;SHT30;40438;52.992;18.604;2023-08-08T09:09:58;17.19;58.14
54540;SHT30;40438;52.992;18.604;2023-08-08T09:12:24;17.22;58.14
54540;SHT30;40438;52.992;18.604;2023-08-08T09:14:54;17.20;58.64
54540;SHT30;40438;52.992;18.604;2023-08-08T09:17:20;17.36;58.50
54540;SHT30;40438;52.992;18.604;2023-08-08T09:19:46;17.48;57.95
54540;SHT30;40438;52.992;18.604;2023-08-08T09:22:13;17.63;58.00
54540;SHT30;40438;52.992;18.604;2023-08-08T09:24:40;17.58;57.60
54540;SHT30;40438;52.992;18.604;2023-08-08T09:27:06;17.65;58.15
54540;SHT30;40438;52.992;18.604;2023-08-08T09:29:33;17.68;57.26
54540;SHT30;40438;52.992;18.604;2023-08-08T09:31:59;17.77;57.61
54540;SHT30;40438;52.992;18.604;2023-08-08T09:34:25;17.81;58.11
54540;SHT30;40438;52.992;18.604;2023-08-08T09:36:51;17.94;57.13
54540;SHT30;40438;52.992;18.604;2023-08-08T09:39:19;17.96;57.52
54540;SHT30;40438;52.992;18.604;2023-08-08T09:41:46;17.99;57.35
54540;SHT30;40438;52.992;18.604;2023-08-08T09:44:12;17.89;57.46
54540;SHT30;40438;52.992;18.604;2023-08-08T09:46:38;17.96;57.48
54540;SHT30;40438;52.992;18.604;2023-08-08T09:49:04;17.84;58.50
54540;SHT30;40438;52.992;18.604;2023-08-08T09:51:30;17.96;57.87
54540;SHT30;40438;52.992;18.604;2023-08-08T09:53:57;17.98;57.41
54540;SHT30;40438;52.992;18.604;2023-08-08T09:56:25;18.15;56.76
54540;SHT30;40438;52.992;18.604;2023-08-08T09:58:51;18.10;56.85
54540;SHT30;40438;52.992;18.604;2023-08-08T10:01:18;18.08;56.61
54540;SHT30;40438;52.992;18.604;2023-08-08T10:03:45;18.08;55.97
54540;SHT30;40438;52.992;18.604;2023-08-08T10:06:12;17.86;56.64
54540;SHT30;40438;52.992;18.604;2023-08-08T10:08:38;17.94;56.88
54540;SHT30;40438;52.992;18.604;2023-08-08T10:11:05;17.91;57.13
54540;SHT30;40438;52.992;18.604;2023-08-08T10:13:35;17.85;57.86
54540;SHT30;40438;52.992;18.604;2023-08-08T10:16:04;17.77;58.23
54540;SHT30;40438;52.992;18.604;2023-08-08T10:18:32;17.58;58.76
54540;SHT30;40438;52.992;18.604;2023-08-08T10:20:58;17.48;58.78
54540;SHT30;40438;52.992;18.604;2023-08-08T10:23:24;17.54;58.60
54540;SHT30;40438;52.992;18.604;2023-08-08T10:25:51;17.65;58.04
54540;SHT30;40438;52.992;18.604;2023-08-08T10:28:20;17.78;57.88
54540;SHT30;40438;52.992;18.604;2023-08-08T10:30:48;17.98;57.45
54540;SHT30;40438;52.992;18.604;2023-08-08T10:33:18;18.04;56.98
54540;SHT30;40438;52.992;18.604;2023-08-08T10:35:53;17.98;57.65
54540;SHT30;40438;52.992;18.604;2023-08-08T10:38:19;17.91;58.50
54540;SHT30;40438;52.992;18.604;2023-08-08T10:40:45;17.74;58.31
54540;SHT30;40438;52.992;18.604;2023-08-08T10:43:11;17.71;58.65
54540;SHT30;40438;52.992;18.604;2023-08-08T10:45:37;17.82;58.07
54540;SHT30;40438;52.992;18.604;2023-08-08T10:48:09;18.20;57.31
54540;SHT30;40438;52.992;18.604;2023-08-08T10:50:38;18.56;55.72
54540;SHT30;40438;52.992;18.604;2023-08-08T10:53:08;18.65;55.24
54540;SHT30;40438;52.992;18.604;2023-08-08T10:55:35;18.60;54.59
54540;SHT30;40438;52.992;18.604;2023-08-08T10:58:05;18.83;53.49
54540;SHT30;40438;52.992;18.604;2023-08-08T11:00:32;19.15;53.47
54540;SHT30;40438;52.992;18.604;2023-08-08T11:02:59;19.28;52.62
54540;SHT30;40438;52.992;18.604;2023-08-08T11:05:28;19.16;54.22
54540;SHT30;40438;52.992;18.604;2023-08-08T11:07:54;19.46;53.00
54540;SHT30;40438;52.992;18.604;2023-08-08T11:10:21;19.63;53.01
54540;SHT30;40438;52.992;18.604;2023-08-08T11:12:58;19.71;51.43
54540;SHT30;40438;52.992;18.604;2023-08-08T11:15:25;19.63;52.37
54540;SHT30;40438;52.992;18.604;2023-08-08T11:17:51;19.49;52.03
54540;SHT30;40438;52.992;18.604;2023-08-08T11:20:17;19.49;52.10
54540;SHT30;40438;52.992;18.604;2023-08-08T11:22:44;19.66;52.25
54540;SHT30;40438;52.992;18.604;2023-08-08T11:25:10;19.53;52.03
54540;SHT30;40438;52.992;18.604;2023-08-08T11:27:35;19.22;52.86
54540;SHT30;40438;52.992;18.604;2023-08-08T11:30:01;19.11;53.64
54540;SHT30;40438;52.992;18.604;2023-08-08T11:32:28;19.02;53.97
54540;SHT30;40438;52.992;18.604;2023-08-08T11:34:54;19.22;53.97
54540;SHT30;40438;52.992;18.604;2023-08-08T11:37:20;19.26;53.82
54540;SHT30;40438;52.992;18.604;2023-08-08T11:39:48;19.46;53.74
54540;SHT30;40438;52.992;18.604;2023-08-08T11:42:14;19.42;52.47
54540;SHT30;40438;52.992;18.604;2023-08-08T11:44:40;19.26;53.15
54540;SHT30;40438;52.992;18.604;2023-08-08T11:47:07;19.19;53.18
54540;SHT30;40438;52.992;18.604;2023-08-08T11:49:40;19.52;53.99
54540;SHT30;40438;52.992;18.604;2023-08-08T11:52:06;19.64;53.55
54540;SHT30;40438;52.992;18.604;2023-08-08T11:54:32;19.50;53.23
54540;SHT30;40438;52.992;18.604;2023-08-08T11:57:00;19.46;54.75
54540;SHT30;40438;52.992;18.604;2023-08-08T11:59:26;19.74;52.91
54540;SHT30;40438;52.992;18.604;2023-08-08T12:01:52;19.75;52.42
54540;SHT30;40438;52.992;18.604;2023-08-08T12:04:20;19.54;53.57
54540;SHT30;40438;52.992;18.604;2023-08-08T12:06:46;19.46;52.91
54540;SHT30;40438;52.992;18.604;2023-08-08T12:09:12;19.52;52.30
54540;SHT30;40438;52.992;18.604;2023-08-08T12:11:39;19.53;52.58
54540;SHT30;40438;52.992;18.604;2023-08-08T12:14:07;19.32;52.93
54540;SHT30;40438;52.992;18.604;2023-08-08T12:16:38;19.31;53.08
54540;SHT30;40438;52.992;18.604;2023-08-08T12:19:07;19.31;53.43
54540;SHT30;40438;52.992;18.604;2023-08-08T12:21:33;19.52;52.74
54540;SHT30;40438;52.992;18.604;2023-08-08T12:23:59;19.74;52.86
54540;SHT30;40438;52.992;18.604;2023-08-08T12:26:24;19.94;52.62
54540;SHT30;40438;52.992;18.604;2023-08-08T12:28:50;20.12;52.21
54540;SHT30;40438;52.992;18.604;2023-08-08T12:31:17;20.49;51.87
54540;SHT30;40438;52.992;18.604;2023-08-08T12:33:43;20.46;51.33
54540;SHT30;40438;52.992;18.604;2023-08-08T12:36:12;20.43;51.34
54540;SHT30;40438;52.992;18.604;2023-08-08T12:38:38;20.33;51.89
54540;SHT30;40438;52.992;18.604;2023-08-08T12:41:03;20.01;53.07
54540;SHT30;40438;52.992;18.604;2023-08-08T12:43:29;19.88;52.67
54540;SHT30;40438;52.992;18.604;2023-08-08T12:45:55;19.67;52.19
54540;SHT30;40438;52.992;18.604;2023-08-08T12:48:22;19.54;52.72
54540;SHT30;40438;52.992;18.604;2023-08-08T12:50:48;19.49;52.12
54540;SHT30;40438;52.992;18.604;2023-08-08T12:53:13;19.46;52.48
54540;SHT30;40438;52.992;18.604;2023-08-08T12:55:39;19.36;53.01
54540;SHT30;40438;52.992;18.604;2023-08-08T12:58:05;19.45;52.63
54540;SHT30;40438;52.992;18.604;2023-08-08T13:00:31;19.28;54.13
54540;SHT30;40438;52.992;18.604;2023-08-08T13:02:57;18.56;60.02
54540;SHT30;40438;52.992;18.604;2023-08-08T13:05:24;17.99;64.09
54540;SHT30;40438;52.992;18.604;2023-08-08T13:07:50;17.74;66.35
54540;SHT30;40438;52.992;18.604;2023-08-08T13:10:16;17.65;66.79
54540;SHT30;40438;52.992;18.604;2023-08-08T13:12:41;17.54;67.42
54540;SHT30;40438;52.992;18.604;2023-08-08T13:15:08;17.54;67.27
54540;SHT30;40438;52.992;18.604;2023-08-08T13:17:34;17.57;66.65
54540;SHT30;40438;52.992;18.604;2023-08-08T13:20:00;18.04;65.90
54540;SHT30;40438;52.992;18.604;2023-08-08T13:22:27;18.54;65.05
54540;SHT30;40438;52.992;18.604;2023-08-08T13:24:53;19.01;61.89
54540;SHT30;40438;52.992;18.604;2023-08-08T13:27:18;19.33;60.06
54540;SHT30;40438;52.992;18.604;2023-08-08T13:29:44;19.43;59.27
54540;SHT30;40438;52.992;18.604;2023-08-08T13:32:10;19.59;58.32
54540;SHT30;40438;52.992;18.604;2023-08-08T13:34:36;19.75;55.71
54540;SHT30;40438;52.992;18.604;2023-08-08T13:37:02;19.83;55.83
54540;SHT30;40438;52.992;18.604;2023-08-08T13:39:29;19.98;54.98
54540;SHT30;40438;52.992;18.604;2023-08-08T13:41:55;20.01;55.52
54540;SHT30;40438;52.992;18.604;2023-08-08T13:44:20;20.05;55.62
54540;SHT30;40438;52.992;18.604;2023-08-08T13:46:46;20.28;55.66
54540;SHT30;40438;52.992;18.604;2023-08-08T13:49:12;20.07;55.77
54540;SHT30;40438;52.992;18.604;2023-08-08T13:51:38;20.04;55.38
54540;SHT30;40438;52.992;18.604;2023-08-08T13:54:04;19.77;56.48
54540;SHT30;40438;52.992;18.604;2023-08-08T13:56:31;19.73;57.18
54540;SHT30;40438;52.992;18.604;2023-08-08T13:58:57;19.67;57.53
54540;SHT30;40438;52.992;18.604;2023-08-08T14:01:22;19.60;57.34
54540;SHT30;40438;52.992;18.604;2023-08-08T14:03:48;19.12;63.76
54540;SHT30;40438;52.992;18.604;2023-08-08T14:06:14;18.87;67.74
54540;SHT30;40438;52.992;18.604;2023-08-08T14:08:40;18.30;67.72
54540;SHT30;40438;52.992;18.604;2023-08-08T14:11:06;17.82;67.44
54540;SHT30;40438;52.992;18.604;2023-08-08T14:13:33;17.54;69.16
54540;SHT30;40438;52.992;18.604;2023-08-08T14:15:58;17.30;71.33
54540;SHT30;40438;52.992;18.604;2023-08-08T14:18:24;17.16;69.18
54540;SHT30;40438;52.992;18.604;2023-08-08T14:20:50;17.05;70.68
54540;SHT30;40438;52.992;18.604;2023-08-08T14:23:16;17.07;68.25
54540;SHT30;40438;52.992;18.604;2023-08-08T14:25:42;17.19;67.91
54540;SHT30;40438;52.992;18.604;2023-08-08T14:28:07;17.34;66.73
54540;SHT30;40438;52.992;18.604;2023-08-08T14:30:34;17.46;63.84
54540;SHT30;40438;52.992;18.604;2023-08-08T14:33:00;17.58;65.41
54540;SHT30;40438;52.992;18.604;2023-08-08T14:35:26;17.61;62.24
54540;SHT30;40438;52.992;18.604;2023-08-08T14:37:52;17.57;61.69
54540;SHT30;40438;52.992;18.604;2023-08-08T14:40:18;17.61;61.84
54540;SHT30;40438;52.992;18.604;2023-08-08T14:42:43;17.73;62.13
54540;SHT30;40438;52.992;18.604;2023-08-08T14:45:10;17.61;62.37
54540;SHT30;40438;52.992;18.604;2023-08-08T14:47:37;17.54;62.33
54540;SHT30;40438;52.992;18.604;2023-08-08T14:50:03;17.51;62.47
54540;SHT30;40438;52.992;18.604;2023-08-08T14:52:29;17.51;62.62
54540;SHT30;40438;52.992;18.604;2023-08-08T14:54:55;17.53;63.31
54540;SHT30;40438;52.992;18.604;2023-08-08T14:57:21;17.50;63.79
54540;SHT30;40438;52.992;18.604;2023-08-08T14:59:46;17.40;64.50
54540;SHT30;40438;52.992;18.604;2023-08-08T15:02:12;17.27;65.06
54540;SHT30;40438;52.992;18.604;2023-08-08T15:04:39;17.31;65.38
54540;SHT30;40438;52.992;18.604;2023-08-08T15:07:05;17.38;64.53
54540;SHT30;40438;52.992;18.604;2023-08-08T15:09:31;17.47;64.53